sensor_id;sensor_type;location;lat;lon;timestamp;temperature;humidity
4530;DHT22;2277;51.626;7.516;2024-02-23T00:01:31;8.40;99.90
4530;DHT22;2277;51.626;7.516;2024-02-23T00:03:56;8.30;99.90
4530;DHT22;2277;51.626;7.516;2024-02-23T00:06:22;8.20;99.90
4530;DHT22;2277;51.626;7.516;2024-02-23T00:08:53;8.10;99.90
4530;DHT22;2277;51.626;7.516;2024-02-23T00:11:20;8.10;99.90
4530;DHT22;2277;51.626;7.516;2024-02-23T00:13:46;7.90;99.90
4530;DHT22;2277;51.626;7.516;2024-02-23T00:16:12;7.80;99.90
4530;DHT22;2277;51.626;7.516;2024-02-23T00:18:38;7.90;99.90
4530;DHT22;2277;51.626;7.516;2024-02-23T00:21:04;7.90;99.90
4530;DHT22;2277;51.626;7.516;2024-02-23T00:23:29;7.70;99.90
4530;DHT22;2277;51.626;7.516;2024-02-23T00:25:55;7.70;99.90
4530;DHT22;2277;51.626;7.516;2024-02-23T00:28:21;7.70;99.90
4530;DHT22;2277;51.626;7.516;2024-02-23T00:30:46;7.70;99.90
4530;DHT22;2277;51.626;7.516;2024-02-23T00:33:12;7.60;99.90
4530;DHT22;2277;51.626;7.516;2024-02-23T00:35:38;7.60;99.90
4530;DHT22;2277;51.626;7.516;2024-02-23T00:38:04;7.60;99.90
4530;DHT22;2277;51.626;7.516;2024-02-23T00:40:29;7.50;99.90
4530;DHT22;2277;51.626;7.516;2024-02-23T00:42:55;7.40;99.90
4530;DHT22;2277;51.626;7.516;2024-02-23T00:45:21;7.40;99.90
4530;DHT22;2277;51.626;7.516;2024-02-23T00:47:47;7.30;99.90
4530;DHT22;2277;51.626;7.516;2024-02-23T00:50:13;7.20;99.90
4530;DHT22;2277;51.626;7.516;2024-02-23T00:52:39;7.20;99.90
4530;DHT22;2277;51.626;7.516;2024-02-23T00:55:04;7.30;99.90
4530;DHT22;2277;51.626;7.516;2024-02-23T00:57:30;7.30;99.90
4530;DHT22;2277;51.626;7.516;2024-02-23T00:59:57;7.30;99.90
4530;DHT22;2277;51.626;7.516;2024-02-23T01:02:22;7.30;99.90
4530;DHT22;2277;51.626;7.516;2024-02-23T01:04:48;7.30;99.90
4530;DHT22;2277;51.626;7.516;2024-02-23T01:07:13;7.30;99.90
4530;DHT22;2277;51.626;7.516;2024-02-23T01:09:39;7.30;99.90
4530;DHT22;2277;51.626;7.516;2024-02-23T01:12:05;7.20;99.90
4530;DHT22;2277;51.626;7.516;2024-02-23T01:14:31;7.20;99.90
4530;DHT22;2277;51.626;7.516;2024-02-23T01:16:56;7.20;99.90
4530;DHT22;2277;51.626;7.516;2024-02-23T01:19:22;7.30;99.90
4530;DHT22;2277;51.626;7.516;2024-02-23T01:21:49;7.20;99.90
4530;DHT22;2277;51.626;7.516;2024-02-23T01:24:18;7.20;99.90
4530;DHT22;2277;51.626;7.516;2024-02-23T01:26:44;7.20;99.90
4530;DHT22;2277;51.626;7.516;2024-02-23T01:29:09;7.10;99.90
4530;DHT22;2277;51.626;7.516;2024-02-23T01:31:35;7.10;99.90
4530;DHT22;2277;51.626;7.516;2024-02-23T01:34:00;7.10;99.90
4530;DHT22;2277;51.626;7.516;2024-02-23T01:36:26;7.10;99.90
4530;DHT22;2277;51.626;7.516;2024-02-23T01:38:51;7.20;99.90
4530;DHT22;2277;51.626;7.516;2024-02-23T01:41:17;7.30;99.90
4530;DHT22;2277;51.626;7.516;2024-02-23T01:43:42;7.20;99.90
4530;DHT22;2277;51.626;7.516;2024-02-23T01:46:08;7.30;99.90
4530;DHT22;2277;51.626;7.516;2024-02-23T01:48:34;7.40;99.90
4530;DHT22;2277;51.626;7.516;2024-02-23T01:51:00;7.40;99.90
4530;DHT22;2277;51.626;7.516;2024-02-23T01:53:27;7.40;99.90
4530;DHT22;2277;51.626;7.516;2024-02-23T01:55:53;7.40;99.90
4530;DHT22;2277;51.626;7.516;2024-02-23T01:58:19;7.50;99.90
4530;DHT22;2277;51.626;7.516;2024-02-23T02:00:45;7.40;99.90
4530;DHT22;2277;51.626;7.516;2024-02-23T02:03:11;7.40;99.90
4530;DHT22;2277;51.626;7.516;2024-02-23T02:05:37;7.40;99.90
4530;DHT22;2277;51.626;7.516;2024-02-23T02:08:03;7.40;99.90
4530;DHT22;2277;51.626;7.516;2024-02-23T02:10:29;7.50;99.90
4530;DHT22;2277;51.626;7.516;2024-02-23T02:12:55;7.50;99.90
4530;DHT22;2277;51.626;7.516;2024-02-23T02:15:20;7.40;99.90
4530;DHT22;2277;51.626;7.516;2024-02-23T02:17:47;7.40;99.90
4530;DHT22;2277;51.626;7.516;2024-02-23T02:20:13;7.40;99.90
4530;DHT22;2277;51.626;7.516;2024-02-23T02:22:39;7.40;99.90
4530;DHT22;2277;51.626;7.516;2024-02-23T02:25:06;7.40;99.90
4530;DHT22;2277;51.626;7.516;2024-02-23T02:27:32;7.40;99.90
4530;DHT22;2277;51.626;7.516;2024-02-23T02:29:57;7.40;99.90
4530;DHT22;2277;51.626;7.516;2024-02-23T02:32:23;7.40;99.90
4530;DHT22;2277;51.626;7.516;2024-02-23T02:34:49;7.40;99.90
4530;DHT22;2277;51.626;7.516;2024-02-23T02:37:15;7.40;99.90
4530;DHT22;2277;51.626;7.516;2024-02-23T02:39:40;7.50;99.90
4530;DHT22;2277;51.626;7.516;2024-02-23T02:42:06;7.50;99.90
4530;DHT22;2277;51.626;7.516;2024-02-23T02:44:32;7.50;99.90
4530;DHT22;2277;51.626;7.516;2024-02-23T02:46:58;7.50;99.90
4530;DHT22;2277;51.626;7.516;2024-02-23T02:49:23;7.50;99.90
4530;DHT22;2277;51.626;7.516;2024-02-23T02:51:49;7.50;99.90
4530;DHT22;2277;51.626;7.516;2024-02-23T02:54:15;7.50;99.90
4530;DHT22;2277;51.626;7.516;2024-02-23T02:56:46;7.40;99.90
4530;DHT22;2277;51.626;7.516;2024-02-23T02:59:12;7.40;99.90
4530;DHT22;2277;51.626;7.516;2024-02-23T03:01:45;7.40;99.90
4530;DHT22;2277;51.626;7.516;2024-02-23T03:04:12;7.40;99.90
4530;DHT22;2277;51.626;7.516;2024-02-23T03:06:38;7.40;99.90
4530;DHT22;2277;51.626;7.516;2024-02-23T03:09:04;7.40;99.90
4530;DHT22;2277;51.626;7.516;2024-02-23T03:11:30;7.40;99.90
4530;DHT22;2277;51.626;7.516;2024-02-23T03:13:56;7.40;99.90
4530;DHT22;2277;51.626;7.516;2024-02-23T03:16:21;7.40;99.90
4530;DHT22;2277;51.626;7.516;2024-02-23T03:18:48;7.40;99.90
4530;DHT22;2277;51.626;7.516;2024-02-23T03:21:14;7.40;99.90
4530;DHT22;2277;51.626;7.516;2024-02-23T03:23:40;7.50;99.90
4530;DHT22;2277;51.626;7.516;2024-02-23T03:26:07;7.50;99.90
4530;DHT22;2277;51.626;7.516;2024-02-23T03:28:33;7.50;99.90
4530;DHT22;2277;51.626;7.516;2024-02-23T03:31:00;7.40;99.90
4530;DHT22;2277;51.626;7.516;2024-02-23T03:33:25;7.30;99.90
4530;DHT22;2277;51.626;7.516;2024-02-23T03:35:51;7.40;99.90
4530;DHT22;2277;51.626;7.516;2024-02-23T03:38:16;7.40;99.90
4530;DHT22;2277;51.626;7.516;2024-02-23T03:40:42;7.40;99.90
4530;DHT22;2277;51.626;7.516;2024-02-23T03:43:08;7.30;99.90
4530;DHT22;2277;51.626;7.516;2024-02-23T03:45:33;7.30;99.90
4530;DHT22;2277;51.626;7.516;2024-02-23T03:47:59;7.20;99.90
4530;DHT22;2277;51.626;7.516;2024-02-23T03:50:25;7.30;99.90
4530;DHT22;2277;51.626;7.516;2024-02-23T03:52:51;7.20;99.90
4530;DHT22;2277;51.626;7.516;2024-02-23T03:55:16;7.10;99.90
4530;DHT22;2277;51.626;7.516;2024-02-23T03:57:42;7.10;99.90
4530;DHT22;2277;51.626;7.516;2024-02-23T04:00:08;7.20;99.90
4530;DHT22;2277;51.626;7.516;2024-02-23T04:02:34;7.10;99.90
4530;DHT22;2277;51.626;7.516;2024-02-23T04:05:00;7.00;99.90
4530;DHT22;2277;51.626;7.516;2024-02-23T04:07:25;7.00;99.90
4530;DHT22;2277;51.626;7.516;2024-02-23T04:09:51;7.10;99.90
4530;DHT22;2277;51.626;7.516;2024-02-23T04:12:21;7.00;99.90
4530;DHT22;2277;51.626;7.516;2024-02-23T04:14:46;7.00;99.90
4530;DHT22;2277;51.626;7.516;2024-02-23T04:17:12;7.00;99.90
4530;DHT22;2277;51.626;7.516;2024-02-23T04:19:38;7.00;99.90
4530;DHT22;2277;51.626;7.516;2024-02-23T04:22:07;6.90;99.90
4530;DHT22;2277;51.626;7.516;2024-02-23T04:24:38;7.00;99.90
4530;DHT22;2277;51.626;7.516;2024-02-23T04:27:04;7.00;99.90
4530;DHT22;2277;51.626;7.516;2024-02-23T04:29:30;7.00;99.90
4530;DHT22;2277;51.626;7.516;2024-02-23T04:31:57;7.00;99.90
4530;DHT22;2277;51.626;7.516;2024-02-23T04:34:23;6.90;99.90
4530;DHT22;2277;51.626;7.516;2024-02-23T04:36:49;7.00;99.90
4530;DHT22;2277;51.626;7.516;2024-02-23T04:39:14;7.00;99.90
4530;DHT22;2277;51.626;7.516;2024-02-23T04:41:40;7.00;99.90
4530;DHT22;2277;51.626;7.516;2024-02-23T04:44:05;7.10;99.90
4530;DHT22;2277;51.626;7.516;2024-02-23T04:46:31;7.10;99.90
4530;DHT22;2277;51.626;7.516;2024-02-23T04:48:59;7.10;99.90
4530;DHT22;2277;51.626;7.516;2024-02-23T04:51:25;7.10;99.90
4530;DHT22;2277;51.626;7.516;2024-02-23T04:53:50;7.10;99.90
4530;DHT22;2277;51.626;7.516;2024-02-23T04:56:16;7.10;99.90
4530;DHT22;2277;51.626;7.516;2024-02-23T04:58:42;7.00;99.90
4530;DHT22;2277;51.626;7.516;2024-02-23T05:01:08;7.10;99.90
4530;DHT22;2277;51.626;7.516;2024-02-23T05:03:34;7.10;99.90
4530;DHT22;2277;51.626;7.516;2024-02-23T05:05:59;7.00;99.90
4530;DHT22;2277;51.626;7.516;2024-02-23T05:08:25;7.10;99.90
4530;DHT22;2277;51.626;7.516;2024-02-23T05:10:52;7.10;99.90
4530;DHT22;2277;51.626;7.516;2024-02-23T05:13:18;7.00;99.90
4530;DHT22;2277;51.626;7.516;2024-02-23T05:15:44;7.10;99.90
4530;DHT22;2277;51.626;7.516;2024-02-23T05:18:09;7.20;99.90
4530;DHT22;2277;51.626;7.516;2024-02-23T05:20:35;7.20;99.90
4530;DHT22;2277;51.626;7.516;2024-02-23T05:23:00;7.20;99.90
4530;DHT22;2277;51.626;7.516;2024-02-23T05:25:26;7.30;99.90
4530;DHT22;2277;51.626;7.516;2024-02-23T05:27:52;7.30;99.90
4530;DHT22;2277;51.626;7.516;2024-02-23T05:30:18;7.30;99.90
4530;DHT22;2277;51.626;7.516;2024-02-23T05:32:43;7.20;99.90
4530;DHT22;2277;51.626;7.516;2024-02-23T05:35:09;7.30;99.90
4530;DHT22;2277;51.626;7.516;2024-02-23T05:37:35;7.30;99.90
4530;DHT22;2277;51.626;7.516;2024-02-23T05:40:01;7.30;99.90
4530;DHT22;2277;51.626;7.516;2024-02-23T05:42:29;7.30;99.90
4530;DHT22;2277;51.626;7.516;2024-02-23T05:44:55;7.20;99.90
4530;DHT22;2277;51.626;7.516;2024-02-23T05:47:21;7.30;99.90
4530;DHT22;2277;51.626;7.516;2024-02-23T05:49:47;7.30;99.90
4530;DHT22;2277;51.626;7.516;2024-02-23T05:52:12;7.30;99.90
4530;DHT22;2277;51.626;7.516;2024-02-23T05:54:38;7.20;99.90
4530;DHT22;2277;51.626;7.516;2024-02-23T05:57:04;7.20;99.90
4530;DHT22;2277;51.626;7.516;2024-02-23T05:59:30;7.30;99.90
4530;DHT22;2277;51.626;7.516;2024-02-23T06:01:55;7.20;99.90
4530;DHT22;2277;51.626;7.516;2024-02-23T06:04:24;7.20;99.90
4530;DHT22;2277;51.626;7.516;2024-02-23T06:06:50;7.30;99.90
4530;DHT22;2277;51.626;7.516;2024-02-23T06:09:15;7.30;99.90
4530;DHT22;2277;51.626;7.516;2024-02-23T06:11:41;7.20;99.90
4530;DHT22;2277;51.626;7.516;2024-02-23T06:14:07;7.30;99.90
4530;DHT22;2277;51.626;7.516;2024-02-23T06:16:33;7.30;99.90
4530;DHT22;2277;51.626;7.516;2024-02-23T06:18:59;7.20;99.90
4530;DHT22;2277;51.626;7.516;2024-02-23T06:21:25;7.20;99.90
4530;DHT22;2277;51.626;7.516;2024-02-23T06:23:50;7.20;99.90
4530;DHT22;2277;51.626;7.516;2024-02-23T06:26:16;7.20;99.90
4530;DHT22;2277;51.626;7.516;2024-02-23T06:28:42;7.10;99.90
4530;DHT22;2277;51.626;7.516;2024-02-23T06:31:08;7.20;99.90
4530;DHT22;2277;51.626;7.516;2024-02-23T06:33:34;7.10;99.90
4530;DHT22;2277;51.626;7.516;2024-02-23T06:36:00;7.10;99.90
4530;DHT22;2277;51.626;7.516;2024-02-23T06:38:26;7.00;99.90
4530;DHT22;2277;51.626;7.516;2024-02-23T06:40:52;7.10;99.90
4530;DHT22;2277;51.626;7.516;2024-02-23T06:43:18;7.10;99.90
4530;DHT22;2277;51.626;7.516;2024-02-23T06:45:44;7.00;99.90
4530;DHT22;2277;51.626;7.516;2024-02-23T06:48:10;7.00;99.90
4530;DHT22;2277;51.626;7.516;2024-02-23T06:50:35;6.90;99.90
4530;DHT22;2277;51.626;7.516;2024-02-23T06:53:01;6.90;99.90
4530;DHT22;2277;51.626;7.516;2024-02-23T06:55:27;6.90;99.90
4530;DHT22;2277;51.626;7.516;2024-02-23T06:57:54;6.90;99.90
4530;DHT22;2277;51.626;7.516;2024-02-23T07:00:20;6.80;99.90
4530;DHT22;2277;51.626;7.516;2024-02-23T07:02:47;6.90;99.90
4530;DHT22;2277;51.626;7.516;2024-02-23T07:05:12;6.90;99.90
4530;DHT22;2277;51.626;7.516;2024-02-23T07:07:39;6.80;99.90
4530;DHT22;2277;51.626;7.516;2024-02-23T07:10:06;6.80;99.90
4530;DHT22;2277;51.626;7.516;2024-02-23T07:12:32;6.80;99.90
4530;DHT22;2277;51.626;7.516;2024-02-23T07:14:57;6.90;99.90
4530;DHT22;2277;51.626;7.516;2024-02-23T07:17:23;7.00;99.90
4530;DHT22;2277;51.626;7.516;2024-02-23T07:19:49;7.00;99.90
4530;DHT22;2277;51.626;7.516;2024-02-23T07:22:16;6.90;99.90
4530;DHT22;2277;51.626;7.516;2024-02-23T07:24:43;7.00;99.90
4530;DHT22;2277;51.626;7.516;2024-02-23T07:27:09;7.00;99.90
4530;DHT22;2277;51.626;7.516;2024-02-23T07:29:34;7.10;99.90
4530;DHT22;2277;51.626;7.516;2024-02-23T07:32:00;7.10;99.90
4530;DHT22;2277;51.626;7.516;2024-02-23T07:34:26;6.90;99.90
4530;DHT22;2277;51.626;7.516;2024-02-23T07:36:52;7.00;99.90
4530;DHT22;2277;51.626;7.516;2024-02-23T07:39:18;7.20;99.90
4530;DHT22;2277;51.626;7.516;2024-02-23T07:41:44;7.30;99.90
4530;DHT22;2277;51.626;7.516;2024-02-23T07:44:09;7.40;99.90
4530;DHT22;2277;51.626;7.516;2024-02-23T07:46:35;7.60;99.90
4530;DHT22;2277;51.626;7.516;2024-02-23T07:49:01;7.60;99.90
4530;DHT22;2277;51.626;7.516;2024-02-23T07:51:26;7.70;99.90
4530;DHT22;2277;51.626;7.516;2024-02-23T07:53:52;7.80;99.90
4530;DHT22;2277;51.626;7.516;2024-02-23T07:56:17;8.10;99.90
4530;DHT22;2277;51.626;7.516;2024-02-23T07:58:43;8.00;99.90
4530;DHT22;2277;51.626;7.516;2024-02-23T08:01:08;8.10;99.90
4530;DHT22;2277;51.626;7.516;2024-02-23T08:03:34;8.10;99.90
4530;DHT22;2277;51.626;7.516;2024-02-23T08:06:00;8.00;99.90
4530;DHT22;2277;51.626;7.516;2024-02-23T08:08:26;8.00;99.90
4530;DHT22;2277;51.626;7.516;2024-02-23T08:10:53;8.10;99.90
4530;DHT22;2277;51.626;7.516;2024-02-23T08:13:19;8.40;99.90
4530;DHT22;2277;51.626;7.516;2024-02-23T08:15:44;8.60;99.90
4530;DHT22;2277;51.626;7.516;2024-02-23T08:18:10;8.60;99.90
4530;DHT22;2277;51.626;7.516;2024-02-23T08:20:36;8.50;99.90
4530;DHT22;2277;51.626;7.516;2024-02-23T08:23:02;8.50;99.90
4530;DHT22;2277;51.626;7.516;2024-02-23T08:25:28;8.50;99.90
4530;DHT22;2277;51.626;7.516;2024-02-23T08:27:55;8.50;99.90
4530;DHT22;2277;51.626;7.516;2024-02-23T08:30:22;8.40;99.90
4530;DHT22;2277;51.626;7.516;2024-02-23T08:32:47;8.50;99.90
4530;DHT22;2277;51.626;7.516;2024-02-23T08:35:13;8.30;99.90
4530;DHT22;2277;51.626;7.516;2024-02-23T08:37:40;8.60;99.90
4530;DHT22;2277;51.626;7.516;2024-02-23T08:40:08;8.80;99.90
4530;DHT22;2277;51.626;7.516;2024-02-23T08:42:34;8.90;99.90
4530;DHT22;2277;51.626;7.516;2024-02-23T08:44:59;9.00;99.90
4530;DHT22;2277;51.626;7.516;2024-02-23T08:47:25;9.20;99.90
4530;DHT22;2277;51.626;7.516;2024-02-23T08:49:53;9.50;99.90
4530;DHT22;2277;51.626;7.516;2024-02-23T08:52:19;9.60;99.90
4530;DHT22;2277;51.626;7.516;2024-02-23T08:54:44;9.40;99.90
4530;DHT22;2277;51.626;7.516;2024-02-23T08:57:10;9.40;99.90
4530;DHT22;2277;51.626;7.516;2024-02-23T08:59:35;9.40;99.90
4530;DHT22;2277;51.626;7.516;2024-02-23T09:02:02;9.50;99.90
4530;DHT22;2277;51.626;7.516;2024-02-23T09:04:27;9.70;99.90
4530;DHT22;2277;51.626;7.516;2024-02-23T09:06:53;9.80;99.90
4530;DHT22;2277;51.626;7.516;2024-02-23T09:09:19;9.90;99.90
4530;DHT22;2277;51.626;7.516;2024-02-23T09:11:44;9.90;99.90
4530;DHT22;2277;51.626;7.516;2024-02-23T09:14:10;9.80;99.90
4530;DHT22;2277;51.626;7.516;2024-02-23T09:16:36;9.90;99.90
4530;DHT22;2277;51.626;7.516;2024-02-23T09:19:01;10.10;99.90
4530;DHT22;2277;51.626;7.516;2024-02-23T09:21:27;10.10;99.90
4530;DHT22;2277;51.626;7.516;2024-02-23T09:23:52;9.90;99.90
4530;DHT22;2277;51.626;7.516;2024-02-23T09:26:18;9.80;99.90
4530;DHT22;2277;51.626;7.516;2024-02-23T09:28:43;9.60;99.90
4530;DHT22;2277;51.626;7.516;2024-02-23T09:31:10;9.50;99.90
4530;DHT22;2277;51.626;7.516;2024-02-23T09:33:36;9.30;99.90
4530;DHT22;2277;51.626;7.516;2024-02-23T09:36:02;9.20;99.90
4530;DHT22;2277;51.626;7.516;2024-02-23T09:38:28;9.10;99.90
4530;DHT22;2277;51.626;7.516;2024-02-23T09:40:53;9.10;99.90
4530;DHT22;2277;51.626;7.516;2024-02-23T09:43:21;8.90;99.90
4530;DHT22;2277;51.626;7.516;2024-02-23T09:45:51;8.90;99.90
4530;DHT22;2277;51.626;7.516;2024-02-23T09:48:21;8.70;99.90
4530;DHT22;2277;51.626;7.516;2024-02-23T09:50:47;8.80;99.90
4530;DHT22;2277;51.626;7.516;2024-02-23T09:53:14;8.70;99.90
4530;DHT22;2277;51.626;7.516;2024-02-23T09:55:41;8.80;99.90
4530;DHT22;2277;51.626;7.516;2024-02-23T09:58:08;8.80;99.90
4530;DHT22;2277;51.626;7.516;2024-02-23T10:00:38;8.70;99.90
4530;DHT22;2277;51.626;7.516;2024-02-23T10:03:04;8.60;99.90
4530;DHT22;2277;51.626;7.516;2024-02-23T10:05:31;8.60;99.90
4530;DHT22;2277;51.626;7.516;2024-02-23T10:07:57;8.70;99.90
4530;DHT22;2277;51.626;7.516;2024-02-23T10:10:33;8.40;99.90
4530;DHT22;2277;51.626;7.516;2024-02-23T10:12:59;8.60;99.90
4530;DHT22;2277;51.626;7.516;2024-02-23T10:15:25;8.70;99.90
4530;DHT22;2277;51.626;7.516;2024-02-23T10:17:51;8.70;99.90
4530;DHT22;2277;51.626;7.516;2024-02-23T10:20:17;8.70;99.90
4530;DHT22;2277;51.626;7.516;2024-02-23T10:22:43;8.80;99.90
4530;DHT22;2277;51.626;7.516;2024-02-23T10:25:09;8.80;99.90
4530;DHT22;2277;51.626;7.516;2024-02-23T10:27:35;8.80;99.90
4530;DHT22;2277;51.626;7.516;2024-02-23T10:30:00;8.70;99.90
4530;DHT22;2277;51.626;7.516;2024-02-23T10:32:29;8.80;99.90
4530;DHT22;2277;51.626;7.516;2024-02-23T10:35:00;8.70;99.90
4530;DHT22;2277;51.626;7.516;2024-02-23T10:37:26;8.70;99.90
4530;DHT22;2277;51.626;7.516;2024-02-23T10:39:57;8.80;99.90
4530;DHT22;2277;51.626;7.516;2024-02-23T10:42:24;8.80;99.90
4530;DHT22;2277;51.626;7.516;2024-02-23T10:44:52;8.90;99.90
4530;DHT22;2277;51.626;7.516;2024-02-23T10:47:20;8.80;99.90
4530;DHT22;2277;51.626;7.516;2024-02-23T10:49:47;8.90;99.90
4530;DHT22;2277;51.626;7.516;2024-02-23T10:52:13;8.80;99.90
4530;DHT22;2277;51.626;7.516;2024-02-23T10:54:41;8.90;99.90
4530;DHT22;2277;51.626;7.516;2024-02-23T10:57:06;8.80;99.90
4530;DHT22;2277;51.626;7.516;2024-02-23T10:59:32;8.80;99.90
4530;DHT22;2277;51.626;7.516;2024-02-23T11:01:59;8.90;99.90
4530;DHT22;2277;51.626;7.516;2024-02-23T11:04:26;9.00;99.90
4530;DHT22;2277;51.626;7.516;2024-02-23T11:06:54;8.90;99.90
4530;DHT22;2277;51.626;7.516;2024-02-23T11:09:22;8.90;99.90
4530;DHT22;2277;51.626;7.516;2024-02-23T11:11:53;8.90;99.90
4530;DHT22;2277;51.626;7.516;2024-02-23T11:14:29;9.00;99.90
4530;DHT22;2277;51.626;7.516;2024-02-23T11:16:55;9.10;99.90
4530;DHT22;2277;51.626;7.516;2024-02-23T11:19:21;9.10;99.90
4530;DHT22;2277;51.626;7.516;2024-02-23T11:21:58;9.10;99.90
4530;DHT22;2277;51.626;7.516;2024-02-23T11:24:28;9.10;99.90
4530;DHT22;2277;51.626;7.516;2024-02-23T11:26:57;9.30;99.90
4530;DHT22;2277;51.626;7.516;2024-02-23T11:29:26;9.40;99.90
4530;DHT22;2277;51.626;7.516;2024-02-23T11:31:53;9.30;99.90
4530;DHT22;2277;51.626;7.516;2024-02-23T11:34:26;9.50;99.90
4530;DHT22;2277;51.626;7.516;2024-02-23T11:36:52;9.70;99.90
4530;DHT22;2277;51.626;7.516;2024-02-23T11:39:19;9.80;99.90
4530;DHT22;2277;51.626;7.516;2024-02-23T11:41:48;10.00;99.90
4530;DHT22;2277;51.626;7.516;2024-02-23T11:44:17;10.00;99.90
4530;DHT22;2277;51.626;7.516;2024-02-23T11:46:44;10.20;99.90
4530;DHT22;2277;51.626;7.516;2024-02-23T11:49:10;10.20;99.90
4530;DHT22;2277;51.626;7.516;2024-02-23T11:51:36;10.20;99.90
4530;DHT22;2277;51.626;7.516;2024-02-23T11:54:02;10.20;99.90
4530;DHT22;2277;51.626;7.516;2024-02-23T11:56:29;10.20;99.90
4530;DHT22;2277;51.626;7.516;2024-02-23T11:58:55;10.10;99.90
4530;DHT22;2277;51.626;7.516;2024-02-23T12:01:21;10.00;99.90
4530;DHT22;2277;51.626;7.516;2024-02-23T12:03:47;9.90;99.90
4530;DHT22;2277;51.626;7.516;2024-02-23T12:06:14;10.00;99.90
4530;DHT22;2277;51.626;7.516;2024-02-23T12:08:41;9.90;99.90
4530;DHT22;2277;51.626;7.516;2024-02-23T12:11:08;9.80;99.90
4530;DHT22;2277;51.626;7.516;2024-02-23T12:13:35;9.80;99.90
4530;DHT22;2277;51.626;7.516;2024-02-23T12:16:01;9.80;99.90
4530;DHT22;2277;51.626;7.516;2024-02-23T12:18:27;9.90;99.90
4530;DHT22;2277;51.626;7.516;2024-02-23T12:21:02;9.90;99.90
4530;DHT22;2277;51.626;7.516;2024-02-23T12:23:48;9.80;99.90
4530;DHT22;2277;51.626;7.516;2024-02-23T12:26:16;9.70;99.90
4530;DHT22;2277;51.626;7.516;2024-02-23T12:28:42;9.80;99.90
4530;DHT22;2277;51.626;7.516;2024-02-23T12:31:08;9.80;99.90
4530;DHT22;2277;51.626;7.516;2024-02-23T12:33:38;9.80;99.90
4530;DHT22;2277;51.626;7.516;2024-02-23T12:36:05;9.90;99.90
4530;DHT22;2277;51.626;7.516;2024-02-23T12:38:31;9.70;99.90
4530;DHT22;2277;51.626;7.516;2024-02-23T12:40:57;9.70;99.90
4530;DHT22;2277;51.626;7.516;2024-02-23T12:43:23;9.80;99.90
4530;DHT22;2277;51.626;7.516;2024-02-23T12:45:55;9.70;99.90
4530;DHT22;2277;51.626;7.516;2024-02-23T12:48:22;9.70;99.90
4530;DHT22;2277;51.626;7.516;2024-02-23T12:50:48;9.80;99.90
4530;DHT22;2277;51.626;7.516;2024-02-23T12:53:37;9.70;99.90
4530;DHT22;2277;51.626;7.516;2024-02-23T12:56:04;9.80;99.90
4530;DHT22;2277;51.626;7.516;2024-02-23T12:58:33;9.80;99.90
4530;DHT22;2277;51.626;7.516;2024-02-23T13:00:59;9.80;99.90
4530;DHT22;2277;51.626;7.516;2024-02-23T13:03:25;9.70;99.90
4530;DHT22;2277;51.626;7.516;2024-02-23T13:05:55;9.80;99.90
4530;DHT22;2277;51.626;7.516;2024-02-23T13:08:22;9.90;99.90
4530;DHT22;2277;51.626;7.516;2024-02-23T13:10:48;9.90;99.90
4530;DHT22;2277;51.626;7.516;2024-02-23T13:13:14;9.90;99.90
4530;DHT22;2277;51.626;7.516;2024-02-23T13:15:41;9.90;99.90
4530;DHT22;2277;51.626;7.516;2024-02-23T13:18:06;9.90;99.90
4530;DHT22;2277;51.626;7.516;2024-02-23T13:20:32;9.90;99.90
4530;DHT22;2277;51.626;7.516;2024-02-23T13:22:58;9.80;99.90
4530;DHT22;2277;51.626;7.516;2024-02-23T13:25:23;9.90;99.90
4530;DHT22;2277;51.626;7.516;2024-02-23T13:27:49;10.00;99.90
4530;DHT22;2277;51.626;7.516;2024-02-23T13:30:15;10.10;99.90
4530;DHT22;2277;51.626;7.516;2024-02-23T13:32:41;10.10;99.90
4530;DHT22;2277;51.626;7.516;2024-02-23T13:35:07;10.10;99.90
4530;DHT22;2277;51.626;7.516;2024-02-23T13:37:34;10.10;99.90
4530;DHT22;2277;51.626;7.516;2024-02-23T13:40:00;10.10;99.90
4530;DHT22;2277;51.626;7.516;2024-02-23T13:42:26;10.10;99.90
4530;DHT22;2277;51.626;7.516;2024-02-23T13:44:51;10.20;99.90
4530;DHT22;2277;51.626;7.516;2024-02-23T13:47:17;10.10;99.90
4530;DHT22;2277;51.626;7.516;2024-02-23T13:49:42;10.10;99.90
4530;DHT22;2277;51.626;7.516;2024-02-23T13:52:08;9.90;99.90
4530;DHT22;2277;51.626;7.516;2024-02-23T13:54:34;10.00;99.90
4530;DHT22;2277;51.626;7.516;2024-02-23T13:56:59;10.00;99.90
4530;DHT22;2277;51.626;7.516;2024-02-23T13:59:25;10.00;99.90
4530;DHT22;2277;51.626;7.516;2024-02-23T14:01:51;10.10;99.90
4530;DHT22;2277;51.626;7.516;2024-02-23T14:04:17;10.00;99.90
4530;DHT22;2277;51.626;7.516;2024-02-23T14:06:42;10.00;99.90
4530;DHT22;2277;51.626;7.516;2024-02-23T14:09:08;10.00;99.90
4530;DHT22;2277;51.626;7.516;2024-02-23T14:11:34;10.10;99.90
4530;DHT22;2277;51.626;7.516;2024-02-23T14:14:00;10.00;99.90
4530;DHT22;2277;51.626;7.516;2024-02-23T14:16:25;10.10;99.90
4530;DHT22;2277;51.626;7.516;2024-02-23T14:18:51;9.90;99.90
4530;DHT22;2277;51.626;7.516;2024-02-23T14:21:17;10.00;99.90
4530;DHT22;2277;51.626;7.516;2024-02-23T14:23:43;10.10;99.90
4530;DHT22;2277;51.626;7.516;2024-02-23T14:26:09;10.00;99.90
4530;DHT22;2277;51.626;7.516;2024-02-23T14:28:35;10.10;99.90
4530;DHT22;2277;51.626;7.516;2024-02-23T14:31:01;10.10;99.90
4530;DHT22;2277;51.626;7.516;2024-02-23T14:33:26;10.10;99.90
4530;DHT22;2277;51.626;7.516;2024-02-23T14:35:52;10.20;99.90
4530;DHT22;2277;51.626;7.516;2024-02-23T14:38:17;10.10;99.90
4530;DHT22;2277;51.626;7.516;2024-02-23T14:40:43;10.10;99.90
4530;DHT22;2277;51.626;7.516;2024-02-23T14:43:09;10.10;99.90
4530;DHT22;2277;51.626;7.516;2024-02-23T14:45:35;10.10;99.90
4530;DHT22;2277;51.626;7.516;2024-02-23T14:48:01;10.10;99.90
4530;DHT22;2277;51.626;7.516;2024-02-23T14:50:28;10.10;99.90
4530;DHT22;2277;51.626;7.516;2024-02-23T14:52:54;10.10;99.90
4530;DHT22;2277;51.626;7.516;2024-02-23T14:55:20;10.10;99.90
4530;DHT22;2277;51.626;7.516;2024-02-23T14:57:45;9.90;99.90
4530;DHT22;2277;51.626;7.516;2024-02-23T15:00:11;10.00;99.90
4530;DHT22;2277;51.626;7.516;2024-02-23T15:02:38;10.10;99.90
4530;DHT22;2277;51.626;7.516;2024-02-23T15:05:05;10.10;99.90
4530;DHT22;2277;51.626;7.516;2024-02-23T15:07:31;10.20;99.90
4530;DHT22;2277;51.626;7.516;2024-02-23T15:09:57;10.20;99.90
4530;DHT22;2277;51.626;7.516;2024-02-23T15:12:22;10.20;99.90
4530;DHT22;2277;51.626;7.516;2024-02-23T15:14:49;10.30;99.90
4530;DHT22;2277;51.626;7.516;2024-02-23T15:17:16;10.20;99.90
4530;DHT22;2277;51.626;7.516;2024-02-23T15:19:41;10.00;99.90
4530;DHT22;2277;51.626;7.516;2024-02-23T15:22:07;10.00;99.90
4530;DHT22;2277;51.626;7.516;2024-02-23T15:24:34;10.00;99.90
4530;DHT22;2277;51.626;7.516;2024-02-23T15:27:00;10.00;99.90
4530;DHT22;2277;51.626;7.516;2024-02-23T15:29:25;9.90;99.90
4530;DHT22;2277;51.626;7.516;2024-02-23T15:31:51;9.90;99.90
4530;DHT22;2277;51.626;7.516;2024-02-23T15:34:16;9.90;99.90
4530;DHT22;2277;51.626;7.516;2024-02-23T15:36:42;9.70;99.90
4530;DHT22;2277;51.626;7.516;2024-02-23T15:39:08;9.80;99.90
4530;DHT22;2277;51.626;7.516;2024-02-23T15:41:33;9.80;99.90
4530;DHT22;2277;51.626;7.516;2024-02-23T15:44:02;9.80;99.90
4530;DHT22;2277;51.626;7.516;2024-02-23T15:46:28;9.80;99.90
4530;DHT22;2277;51.626;7.516;2024-02-23T15:48:55;9.80;99.90
4530;DHT22;2277;51.626;7.516;2024-02-23T15:51:20;9.70;99.90
4530;DHT22;2277;51.626;7.516;2024-02-23T15:53:46;9.70;99.90
4530;DHT22;2277;51.626;7.516;2024-02-23T15:56:12;9.80;99.90
4530;DHT22;2277;51.626;7.516;2024-02-23T15:58:38;9.90;99.90
4530;DHT22;2277;51.626;7.516;2024-02-23T16:01:04;9.90;99.90
4530;DHT22;2277;51.626;7.516;2024-02-23T16:03:29;9.90;99.90
4530;DHT22;2277;51.626;7.516;2024-02-23T16:05:55;9.70;99.90
4530;DHT22;2277;51.626;7.516;2024-02-23T16:08:42;9.80;99.90